sensor_id;sensor_type;location;lat;lon;timestamp;temperature;humidity
67054;SHT31;53960;51.826;5.850;2023-07-13T00:01:39;18.28;70.03
67054;SHT31;53960;51.826;5.850;2023-07-13T00:04:05;18.31;70.20
67054;SHT31;53960;51.826;5.850;2023-07-13T00:06:31;18.28;70.10
67054;SHT31;53960;51.826;5.850;2023-07-13T00:08:58;18.22;70.70
67054;SHT31;53960;51.826;5.850;2023-07-13T00:11:24;18.25;70.36
67054;SHT31;53960;51.826;5.850;2023-07-13T00:13:50;18.18;70.51
67054;SHT31;53960;51.826;5.850;2023-07-13T00:16:16;18.24;70.17
67054;SHT31;53960;51.826;5.850;2023-07-13T00:18:41;18.26;70.05
67054;SHT31;53960;51.826;5.850;2023-07-13T00:21:07;18.22;70.25
67054;SHT31;53960;51.826;5.850;2023-07-13T00:23:38;18.18;70.37
67054;SHT31;53960;51.826;5.850;2023-07-13T00:26:05;18.12;70.43
67054;SHT31;53960;51.826;5.850;2023-07-13T00:28:32;18.12;70.65
67054;SHT31;53960;51.826;5.850;2023-07-13T00:30:58;18.12;70.71
67054;SHT31;53960;51.826;5.850;2023-07-13T00:33:23;18.14;70.56
67054;SHT31;53960;51.826;5.850;2023-07-13T00:35:50;18.11;70.79
67054;SHT31;53960;51.826;5.850;2023-07-13T00:38:15;18.11;70.67
67054;SHT31;53960;51.826;5.850;2023-07-13T00:40:42;18.11;70.44
67054;SHT31;53960;51.826;5.850;2023-07-13T00:43:19;18.14;70.44
67054;SHT31;53960;51.826;5.850;2023-07-13T00:48:25;17.90;71.39
67054;SHT31;53960;51.826;5.850;2023-07-13T00:50:53;17.84;71.91
67054;SHT31;53960;51.826;5.850;2023-07-13T00:53:20;17.81;71.79
67054;SHT31;53960;51.826;5.850;2023-07-13T00:55:50;17.75;72.25
67054;SHT31;53960;51.826;5.850;2023-07-13T00:58:17;17.77;72.27
67054;SHT31;53960;51.826;5.850;2023-07-13T01:00:42;17.78;72.16
67054;SHT31;53960;51.826;5.850;2023-07-13T01:03:08;17.85;71.59
67054;SHT31;53960;51.826;5.850;2023-07-13T01:05:35;17.81;71.56
67054;SHT31;53960;51.826;5.850;2023-07-13T01:08:02;17.81;71.51
67054;SHT31;53960;51.826;5.850;2023-07-13T01:10:29;17.73;71.90
67054;SHT31;53960;51.826;5.850;2023-07-13T01:12:54;17.70;72.00
67054;SHT31;53960;51.826;5.850;2023-07-13T01:15:41;17.70;71.99
67054;SHT31;53960;51.826;5.850;2023-07-13T01:18:13;17.64;72.08
67054;SHT31;53960;51.826;5.850;2023-07-13T01:20:40;17.74;71.83
67054;SHT31;53960;51.826;5.850;2023-07-13T01:23:08;17.74;71.78
67054;SHT31;53960;51.826;5.850;2023-07-13T01:25:35;17.70;71.99
67054;SHT31;53960;51.826;5.850;2023-07-13T01:28:02;17.62;72.34
67054;SHT31;53960;51.826;5.850;2023-07-13T01:30:28;17.66;72.32
67054;SHT31;53960;51.826;5.850;2023-07-13T01:32:53;17.63;72.41
67054;SHT31;53960;51.826;5.850;2023-07-13T01:35:19;17.57;72.85
67054;SHT31;53960;51.826;5.850;2023-07-13T01:37:44;17.51;72.84
67054;SHT31;53960;51.826;5.850;2023-07-13T01:40:11;17.57;72.63
67054;SHT31;53960;51.826;5.850;2023-07-13T01:42:37;17.47;72.76
67054;SHT31;53960;51.826;5.850;2023-07-13T01:45:03;17.49;72.88
67054;SHT31;53960;51.826;5.850;2023-07-13T01:47:29;17.53;72.51
67054;SHT31;53960;51.826;5.850;2023-07-13T01:49:58;17.47;72.82
67054;SHT31;53960;51.826;5.850;2023-07-13T01:52:24;17.50;72.82
67054;SHT31;53960;51.826;5.850;2023-07-13T01:54:50;17.34;73.39
67054;SHT31;53960;51.826;5.850;2023-07-13T01:57:15;17.36;73.36
67054;SHT31;53960;51.826;5.850;2023-07-13T01:59:41;17.37;73.51
67054;SHT31;53960;51.826;5.850;2023-07-13T02:02:06;17.37;73.41
67054;SHT31;53960;51.826;5.850;2023-07-13T02:04:32;17.34;73.84
67054;SHT31;53960;51.826;5.850;2023-07-13T02:06:57;17.30;73.90
67054;SHT31;53960;51.826;5.850;2023-07-13T02:09:23;17.26;73.85
67054;SHT31;53960;51.826;5.850;2023-07-13T02:11:48;17.23;73.97
67054;SHT31;53960;51.826;5.850;2023-07-13T02:14:14;17.20;74.37
67054;SHT31;53960;51.826;5.850;2023-07-13T02:16:41;17.20;74.26
67054;SHT31;53960;51.826;5.850;2023-07-13T02:19:07;17.18;74.37
67054;SHT31;53960;51.826;5.850;2023-07-13T02:21:33;17.18;74.35
67054;SHT31;53960;51.826;5.850;2023-07-13T02:23:58;17.12;74.49
67054;SHT31;53960;51.826;5.850;2023-07-13T02:26:25;17.19;74.40
67054;SHT31;53960;51.826;5.850;2023-07-13T02:28:52;17.16;74.65
67054;SHT31;53960;51.826;5.850;2023-07-13T02:31:18;17.13;74.89
67054;SHT31;53960;51.826;5.850;2023-07-13T02:33:45;17.05;74.92
67054;SHT31;53960;51.826;5.850;2023-07-13T02:36:10;17.12;74.71
67054;SHT31;53960;51.826;5.850;2023-07-13T02:38:36;17.06;74.96
67054;SHT31;53960;51.826;5.850;2023-07-13T02:41:03;17.08;74.86
67054;SHT31;53960;51.826;5.850;2023-07-13T02:43:29;17.02;75.39
67054;SHT31;53960;51.826;5.850;2023-07-13T02:45:55;17.03;75.28
67054;SHT31;53960;51.826;5.850;2023-07-13T02:48:20;17.05;75.13
67054;SHT31;53960;51.826;5.850;2023-07-13T02:50:46;17.02;75.54
67054;SHT31;53960;51.826;5.850;2023-07-13T02:53:11;17.06;75.40
67054;SHT31;53960;51.826;5.850;2023-07-13T02:55:37;17.12;75.30
67054;SHT31;53960;51.826;5.850;2023-07-13T02:58:03;17.05;75.49
67054;SHT31;53960;51.826;5.850;2023-07-13T03:00:28;17.02;75.41
67054;SHT31;53960;51.826;5.850;2023-07-13T03:02:54;17.03;75.61
67054;SHT31;53960;51.826;5.850;2023-07-13T03:05:22;17.08;75.26
67054;SHT31;53960;51.826;5.850;2023-07-13T03:07:47;17.05;75.71
67054;SHT31;53960;51.826;5.850;2023-07-13T03:10:13;16.96;76.01
67054;SHT31;53960;51.826;5.850;2023-07-13T03:12:38;17.01;76.06
67054;SHT31;53960;51.826;5.850;2023-07-13T03:15:04;17.02;76.02
67054;SHT31;53960;51.826;5.850;2023-07-13T03:17:30;16.95;75.91
67054;SHT31;53960;51.826;5.850;2023-07-13T03:19:55;16.85;76.49
67054;SHT31;53960;51.826;5.850;2023-07-13T03:22:21;16.85;76.67
67054;SHT31;53960;51.826;5.850;2023-07-13T03:24:46;16.85;76.59
67054;SHT31;53960;51.826;5.850;2023-07-13T03:27:12;16.85;76.87
67054;SHT31;53960;51.826;5.850;2023-07-13T03:29:38;16.82;76.81
67054;SHT31;53960;51.826;5.850;2023-07-13T03:32:03;16.75;77.31
67054;SHT31;53960;51.826;5.850;2023-07-13T03:34:30;16.82;77.07
67054;SHT31;53960;51.826;5.850;2023-07-13T03:36:56;16.79;77.14
67054;SHT31;53960;51.826;5.850;2023-07-13T03:39:21;16.89;76.92
67054;SHT31;53960;51.826;5.850;2023-07-13T03:41:47;16.88;77.04
67054;SHT31;53960;51.826;5.850;2023-07-13T03:44:12;16.85;77.22
67054;SHT31;53960;51.826;5.850;2023-07-13T03:46:38;16.86;77.13
67054;SHT31;53960;51.826;5.850;2023-07-13T03:49:04;16.88;77.01
67054;SHT31;53960;51.826;5.850;2023-07-13T03:51:30;16.96;76.84
67054;SHT31;53960;51.826;5.850;2023-07-13T03:53:56;16.92;77.15
67054;SHT31;53960;51.826;5.850;2023-07-13T03:56:22;16.85;77.36
67054;SHT31;53960;51.826;5.850;2023-07-13T03:58:49;16.74;77.73
67054;SHT31;53960;51.826;5.850;2023-07-13T04:01:17;16.61;78.40
67054;SHT31;53960;51.826;5.850;2023-07-13T04:03:43;16.67;78.40
67054;SHT31;53960;51.826;5.850;2023-07-13T04:06:15;16.71;78.04
67054;SHT31;53960;51.826;5.850;2023-07-13T04:08:41;16.79;78.09
67054;SHT31;53960;51.826;5.850;2023-07-13T04:11:07;16.84;77.85
67054;SHT31;53960;51.826;5.850;2023-07-13T04:13:32;16.85;77.96
67054;SHT31;53960;51.826;5.850;2023-07-13T04:15:58;16.74;78.22
67054;SHT31;53960;51.826;5.850;2023-07-13T04:18:23;16.75;78.53
67054;SHT31;53960;51.826;5.850;2023-07-13T04:20:50;16.85;78.23
67054;SHT31;53960;51.826;5.850;2023-07-13T04:23:16;16.81;78.13
67054;SHT31;53960;51.826;5.850;2023-07-13T04:25:51;16.86;78.14
67054;SHT31;53960;51.826;5.850;2023-07-13T04:28:22;16.85;78.27
67054;SHT31;53960;51.826;5.850;2023-07-13T04:30:48;16.86;78.18
67054;SHT31;53960;51.826;5.850;2023-07-13T04:33:13;16.92;78.05
67054;SHT31;53960;51.826;5.850;2023-07-13T04:35:39;16.94;78.14
67054;SHT31;53960;51.826;5.850;2023-07-13T04:38:04;17.01;77.92
67054;SHT31;53960;51.826;5.850;2023-07-13T04:40:30;17.02;77.87
67054;SHT31;53960;51.826;5.850;2023-07-13T04:42:56;17.01;77.93
67054;SHT31;53960;51.826;5.850;2023-07-13T04:45:22;17.09;77.60
67054;SHT31;53960;51.826;5.850;2023-07-13T04:47:49;17.09;77.97
67054;SHT31;53960;51.826;5.850;2023-07-13T04:50:15;17.11;77.85
67054;SHT31;53960;51.826;5.850;2023-07-13T04:52:45;17.19;77.67
67054;SHT31;53960;51.826;5.850;2023-07-13T04:55:10;17.20;77.68
67054;SHT31;53960;51.826;5.850;2023-07-13T04:57:36;17.20;77.87
67054;SHT31;53960;51.826;5.850;2023-07-13T05:00:02;17.20;77.87
67054;SHT31;53960;51.826;5.850;2023-07-13T05:02:31;17.12;78.26
67054;SHT31;53960;51.826;5.850;2023-07-13T05:04:58;17.19;77.96
67054;SHT31;53960;51.826;5.850;2023-07-13T05:07:23;17.15;78.05
67054;SHT31;53960;51.826;5.850;2023-07-13T05:09:48;17.18;78.19
67054;SHT31;53960;51.826;5.850;2023-07-13T05:12:14;17.20;78.05
67054;SHT31;53960;51.826;5.850;2023-07-13T05:14:39;17.23;78.21
67054;SHT31;53960;51.826;5.850;2023-07-13T05:17:05;17.32;78.05
67054;SHT31;53960;51.826;5.850;2023-07-13T05:19:30;17.36;78.09
67054;SHT31;53960;51.826;5.850;2023-07-13T05:21:56;17.34;78.30
67054;SHT31;53960;51.826;5.850;2023-07-13T05:24:22;17.36;78.36
67054;SHT31;53960;51.826;5.850;2023-07-13T05:26:47;17.42;78.08
67054;SHT31;53960;51.826;5.850;2023-07-13T05:29:13;17.40;78.42
67054;SHT31;53960;51.826;5.850;2023-07-13T05:31:38;17.33;78.72
67054;SHT31;53960;51.826;5.850;2023-07-13T05:34:04;17.32;78.90
67054;SHT31;53960;51.826;5.850;2023-07-13T05:36:29;17.34;78.90
67054;SHT31;53960;51.826;5.850;2023-07-13T05:38:55;17.43;78.83
67054;SHT31;53960;51.826;5.850;2023-07-13T05:41:20;17.50;78.65
67054;SHT31;53960;51.826;5.850;2023-07-13T05:43:46;17.54;78.62
67054;SHT31;53960;51.826;5.850;2023-07-13T05:46:12;17.57;78.82
67054;SHT31;53960;51.826;5.850;2023-07-13T05:48:37;17.62;78.95
67054;SHT31;53960;51.826;5.850;2023-07-13T05:51:03;17.77;78.66
67054;SHT31;53960;51.826;5.850;2023-07-13T05:53:29;17.81;78.65
67054;SHT31;53960;51.826;5.850;2023-07-13T05:55:55;17.83;78.92
67054;SHT31;53960;51.826;5.850;2023-07-13T05:58:21;17.93;78.84
67054;SHT31;53960;51.826;5.850;2023-07-13T06:00:47;17.90;79.00
67054;SHT31;53960;51.826;5.850;2023-07-13T06:03:13;17.98;78.98
67054;SHT31;53960;51.826;5.850;2023-07-13T06:05:39;18.01;78.82
67054;SHT31;53960;51.826;5.850;2023-07-13T06:08:08;18.04;78.82
67054;SHT31;53960;51.826;5.850;2023-07-13T06:10:35;18.02;78.96
67054;SHT31;53960;51.826;5.850;2023-07-13T06:13:01;18.00;79.38
67054;SHT31;53960;51.826;5.850;2023-07-13T06:15:27;18.14;79.07
67054;SHT31;53960;51.826;5.850;2023-07-13T06:17:52;18.18;78.76
67054;SHT31;53960;51.826;5.850;2023-07-13T06:20:18;18.25;78.75
67054;SHT31;53960;51.826;5.850;2023-07-13T06:22:43;18.38;78.48
67054;SHT31;53960;51.826;5.850;2023-07-13T06:25:09;18.41;78.38
67054;SHT31;53960;51.826;5.850;2023-07-13T06:27:34;18.42;78.35
67054;SHT31;53960;51.826;5.850;2023-07-13T06:30:00;18.49;78.33
67054;SHT31;53960;51.826;5.850;2023-07-13T06:32:25;18.62;78.28
67054;SHT31;53960;51.826;5.850;2023-07-13T06:34:51;18.82;78.05
67054;SHT31;53960;51.826;5.850;2023-07-13T06:37:17;18.87;77.56
67054;SHT31;53960;51.826;5.850;2023-07-13T06:39:43;18.91;77.52
67054;SHT31;53960;51.826;5.850;2023-07-13T06:42:09;18.94;77.70
67054;SHT31;53960;51.826;5.850;2023-07-13T06:44:34;18.99;77.68
67054;SHT31;53960;51.826;5.850;2023-07-13T06:46:59;18.90;77.52
67054;SHT31;53960;51.826;5.850;2023-07-13T06:49:25;18.99;77.68
67054;SHT31;53960;51.826;5.850;2023-07-13T06:51:51;19.07;77.59
67054;SHT31;53960;51.826;5.850;2023-07-13T06:54:16;19.08;77.16
67054;SHT31;53960;51.826;5.850;2023-07-13T06:56:42;19.08;77.21
67054;SHT31;53960;51.826;5.850;2023-07-13T06:59:07;19.12;77.05
67054;SHT31;53960;51.826;5.850;2023-07-13T07:01:33;19.17;77.17
67054;SHT31;53960;51.826;5.850;2023-07-13T07:03:59;19.21;77.11
67054;SHT31;53960;51.826;5.850;2023-07-13T07:06:24;19.31;76.73
67054;SHT31;53960;51.826;5.850;2023-07-13T07:08:51;19.27;76.68
67054;SHT31;53960;51.826;5.850;2023-07-13T07:11:21;19.30;76.51
67054;SHT31;53960;51.826;5.850;2023-07-13T07:13:51;19.32;76.48
67054;SHT31;53960;51.826;5.850;2023-07-13T07:16:17;19.38;76.60
67054;SHT31;53960;51.826;5.850;2023-07-13T07:18:43;19.52;76.18
67054;SHT31;53960;51.826;5.850;2023-07-13T07:21:08;19.65;76.25
67054;SHT31;53960;51.826;5.850;2023-07-13T07:23:34;19.85;76.01
67054;SHT31;53960;51.826;5.850;2023-07-13T07:26:00;19.79;75.19
67054;SHT31;53960;51.826;5.850;2023-07-13T07:28:30;19.83;75.17
67054;SHT31;53960;51.826;5.850;2023-07-13T07:30:57;19.87;75.48
67054;SHT31;53960;51.826;5.850;2023-07-13T07:33:23;19.87;75.27
67054;SHT31;53960;51.826;5.850;2023-07-13T07:35:49;19.89;75.20
67054;SHT31;53960;51.826;5.850;2023-07-13T07:38:14;19.93;75.32
67054;SHT31;53960;51.826;5.850;2023-07-13T07:40:40;20.06;74.88
67054;SHT31;53960;51.826;5.850;2023-07-13T07:43:07;20.31;74.23
67054;SHT31;53960;51.826;5.850;2023-07-13T07:45:33;20.44;74.36
67054;SHT31;53960;51.826;5.850;2023-07-13T07:47:59;20.41;73.90
67054;SHT31;53960;51.826;5.850;2023-07-13T07:50:25;20.39;73.93
67054;SHT31;53960;51.826;5.850;2023-07-13T07:52:51;20.29;74.02
67054;SHT31;53960;51.826;5.850;2023-07-13T07:55:17;20.23;74.35
67054;SHT31;53960;51.826;5.850;2023-07-13T07:57:43;20.10;74.44
67054;SHT31;53960;51.826;5.850;2023-07-13T08:00:09;20.14;74.49
67054;SHT31;53960;51.826;5.850;2023-07-13T08:02:35;20.01;75.10
67054;SHT31;53960;51.826;5.850;2023-07-13T08:05:00;20.08;75.04
67054;SHT31;53960;51.826;5.850;2023-07-13T08:07:26;20.08;74.60
67054;SHT31;53960;51.826;5.850;2023-07-13T08:09:53;20.05;74.84
67054;SHT31;53960;51.826;5.850;2023-07-13T08:12:19;20.08;74.76
67054;SHT31;53960;51.826;5.850;2023-07-13T08:14:45;20.08;74.82
67054;SHT31;53960;51.826;5.850;2023-07-13T08:17:11;20.09;74.76
67054;SHT31;53960;51.826;5.850;2023-07-13T08:19:36;20.16;74.97
67054;SHT31;53960;51.826;5.850;2023-07-13T08:22:02;20.31;74.13
67054;SHT31;53960;51.826;5.850;2023-07-13T08:24:27;20.40;74.09
67054;SHT31;53960;51.826;5.850;2023-07-13T08:26:52;20.44;73.13
67054;SHT31;53960;51.826;5.850;2023-07-13T08:29:18;20.45;73.41
67054;SHT31;53960;51.826;5.850;2023-07-13T08:31:44;20.40;73.41
67054;SHT31;53960;51.826;5.850;2023-07-13T08:34:10;20.45;72.59
67054;SHT31;53960;51.826;5.850;2023-07-13T08:36:36;20.47;72.30
67054;SHT31;53960;51.826;5.850;2023-07-13T08:39:01;20.55;72.48
67054;SHT31;53960;51.826;5.850;2023-07-13T08:41:27;20.60;72.68
67054;SHT31;53960;51.826;5.850;2023-07-13T08:43:59;20.78;71.90
67054;SHT31;53960;51.826;5.850;2023-07-13T08:46:35;20.82;72.50
67054;SHT31;53960;51.826;5.850;2023-07-13T08:49:04;20.91;71.20
67054;SHT31;53960;51.826;5.850;2023-07-13T08:51:58;20.79;71.03
67054;SHT31;53960;51.826;5.850;2023-07-13T08:54:43;20.75;70.88
67054;SHT31;53960;51.826;5.850;2023-07-13T08:57:21;20.72;70.64
67054;SHT31;53960;51.826;5.850;2023-07-13T08:59:50;20.74;68.83
67054;SHT31;53960;51.826;5.850;2023-07-13T09:05:24;21.19;70.04
67054;SHT31;53960;51.826;5.850;2023-07-13T09:10:31;20.99;70.11
67054;SHT31;53960;51.826;5.850;2023-07-13T09:16:22;21.32;67.72
67054;SHT31;53960;51.826;5.850;2023-07-13T09:18:53;21.20;68.04
67054;SHT31;53960;51.826;5.850;2023-07-13T09:21:26;21.08;67.37
67054;SHT31;53960;51.826;5.850;2023-07-13T09:23:58;21.28;67.00
67054;SHT31;53960;51.826;5.850;2023-07-13T09:26:28;21.45;66.34
67054;SHT31;53960;51.826;5.850;2023-07-13T09:29:12;21.46;66.45
67054;SHT31;53960;51.826;5.850;2023-07-13T09:31:44;21.37;66.67
67054;SHT31;53960;51.826;5.850;2023-07-13T09:34:13;21.15;67.21
67054;SHT31;53960;51.826;5.850;2023-07-13T09:36:39;21.00;67.16
67054;SHT31;53960;51.826;5.850;2023-07-13T09:42:14;20.75;69.40
67054;SHT31;53960;51.826;5.850;2023-07-13T09:47:18;20.52;73.40
67054;SHT31;53960;51.826;5.850;2023-07-13T09:49:44;20.44;73.13
67054;SHT31;53960;51.826;5.850;2023-07-13T09:52:15;20.47;72.69
67054;SHT31;53960;51.826;5.850;2023-07-13T09:54:45;20.44;72.50
67054;SHT31;53960;51.826;5.850;2023-07-13T09:57:19;20.43;73.28
67054;SHT31;53960;51.826;5.850;2023-07-13T09:59:49;20.50;74.48
67054;SHT31;53960;51.826;5.850;2023-07-13T10:02:32;20.50;74.06
67054;SHT31;53960;51.826;5.850;2023-07-13T10:05:16;20.48;72.95
67054;SHT31;53960;51.826;5.850;2023-07-13T10:07:44;20.45;74.83
67054;SHT31;53960;51.826;5.850;2023-07-13T10:10:19;20.37;72.75
67054;SHT31;53960;51.826;5.850;2023-07-13T10:12:46;20.31;74.71
67054;SHT31;53960;51.826;5.850;2023-07-13T10:15:21;20.19;76.81
67054;SHT31;53960;51.826;5.850;2023-07-13T10:17:48;20.14;76.32
67054;SHT31;53960;51.826;5.850;2023-07-13T10:20:14;20.13;78.21
67054;SHT31;53960;51.826;5.850;2023-07-13T10:23:07;20.20;77.81
67054;SHT31;53960;51.826;5.850;2023-07-13T10:25:38;20.13;78.64
67054;SHT31;53960;51.826;5.850;2023-07-13T10:28:23;20.08;77.52
67054;SHT31;53960;51.826;5.850;2023-07-13T10:30:52;20.06;78.99
67054;SHT31;53960;51.826;5.850;2023-07-13T10:33:19;20.12;78.12
67054;SHT31;53960;51.826;5.850;2023-07-13T10:35:47;20.08;78.85
67054;SHT31;53960;51.826;5.850;2023-07-13T10:38:20;20.06;79.41
67054;SHT31;53960;51.826;5.850;2023-07-13T10:40:54;20.00;79.98
67054;SHT31;53960;51.826;5.850;2023-07-13T10:43:28;19.94;80.31
67054;SHT31;53960;51.826;5.850;2023-07-13T10:45:56;20.05;80.72
67054;SHT31;53960;51.826;5.850;2023-07-13T10:48:23;20.21;80.33
67054;SHT31;53960;51.826;5.850;2023-07-13T10:50:51;20.33;81.39
67054;SHT31;53960;51.826;5.850;2023-07-13T10:53:21;20.64;80.19
67054;SHT31;53960;51.826;5.850;2023-07-13T10:58:21;20.55;80.05
67054;SHT31;53960;51.826;5.850;2023-07-13T11:03:34;20.31;80.14
67054;SHT31;53960;51.826;5.850;2023-07-13T11:11:32;20.03;79.49
67054;SHT31;53960;51.826;5.850;2023-07-13T11:14:00;19.93;78.61
67054;SHT31;53960;51.826;5.850;2023-07-13T11:16:35;19.87;80.15
67054;SHT31;53960;51.826;5.850;2023-07-13T11:21:28;19.87;80.06
67054;SHT31;53960;51.826;5.850;2023-07-13T11:24:16;19.85;80.04
67054;SHT31;53960;51.826;5.850;2023-07-13T11:31:59;20.06;79.45
67054;SHT31;53960;51.826;5.850;2023-07-13T11:34:29;20.03;79.48
67054;SHT31;53960;51.826;5.850;2023-07-13T11:36:58;20.16;78.98
67054;SHT31;53960;51.826;5.850;2023-07-13T11:39:34;20.30;78.39
67054;SHT31;53960;51.826;5.850;2023-07-13T11:42:03;20.30;79.60
67054;SHT31;53960;51.826;5.850;2023-07-13T11:44:30;20.37;78.64
67054;SHT31;53960;51.826;5.850;2023-07-13T11:46:58;20.31;78.99
67054;SHT31;53960;51.826;5.850;2023-07-13T11:49:31;20.19;78.71
67054;SHT31;53960;51.826;5.850;2023-07-13T11:51:57;20.13;78.94
67054;SHT31;53960;51.826;5.850;2023-07-13T11:54:41;20.05;77.96
67054;SHT31;53960;51.826;5.850;2023-07-13T11:57:28;20.09;78.51
67054;SHT31;53960;51.826;5.850;2023-07-13T11:59:56;20.19;78.41
67054;SHT31;53960;51.826;5.850;2023-07-13T12:02:32;20.34;78.45
67054;SHT31;53960;51.826;5.850;2023-07-13T12:05:00;20.34;77.13
67054;SHT31;53960;51.826;5.850;2023-07-13T12:07:29;20.48;77.69
67054;SHT31;53960;51.826;5.850;2023-07-13T12:12:51;21.22;76.06
67054;SHT31;53960;51.826;5.850;2023-07-13T12:15:17;21.45;75.96
67054;SHT31;53960;51.826;5.850;2023-07-13T12:17:42;21.71;76.08
67054;SHT31;53960;51.826;5.850;2023-07-13T12:20:27;21.87;72.99
67054;SHT31;53960;51.826;5.850;2023-07-13T12:22:56;21.90;73.51
67054;SHT31;53960;51.826;5.850;2023-07-13T12:25:22;22.18;74.46
67054;SHT31;53960;51.826;5.850;2023-07-13T12:27:50;22.41;73.20
67054;SHT31;53960;51.826;5.850;2023-07-13T12:30:27;22.63;72.58
67054;SHT31;53960;51.826;5.850;2023-07-13T12:33:06;22.44;73.41
67054;SHT31;53960;51.826;5.850;2023-07-13T12:35:40;22.28;72.34
67054;SHT31;53960;51.826;5.850;2023-07-13T12:38:09;22.12;73.33
67054;SHT31;53960;51.826;5.850;2023-07-13T12:40:36;22.15;72.06
67054;SHT31;53960;51.826;5.850;2023-07-13T12:43:03;22.55;72.21
67054;SHT31;53960;51.826;5.850;2023-07-13T12:45:32;22.76;69.89
67054;SHT31;53960;51.826;5.850;2023-07-13T12:48:03;22.79;70.34
67054;SHT31;53960;51.826;5.850;2023-07-13T12:50:41;22.34;70.50
67054;SHT31;53960;51.826;5.850;2023-07-13T12:53:23;22.15;70.79
67054;SHT31;53960;51.826;5.850;2023-07-13T12:55:56;22.15;71.82
67054;SHT31;53960;51.826;5.850;2023-07-13T12:58:28;22.45;69.06
67054;SHT31;53960;51.826;5.850;2023-07-13T13:00:56;22.35;68.24
67054;SHT31;53960;51.826;5.850;2023-07-13T13:03:52;22.90;68.46
67054;SHT31;53960;51.826;5.850;2023-07-13T13:08:46;23.27;64.88
67054;SHT31;53960;51.826;5.850;2023-07-13T13:11:11;23.11;61.09
67054;SHT31;53960;51.826;5.850;2023-07-13T13:13:40;22.92;61.49
67054;SHT31;53960;51.826;5.850;2023-07-13T13:18:55;23.04;61.26
67054;SHT31;53960;51.826;5.850;2023-07-13T13:21:23;23.30;60.35
67054;SHT31;53960;51.826;5.850;2023-07-13T13:23:48;23.13;60.64
67054;SHT31;53960;51.826;5.850;2023-07-13T13:26:16;22.92;60.59
67054;SHT31;53960;51.826;5.850;2023-07-13T13:28:43;22.86;61.10
67054;SHT31;53960;51.826;5.850;2023-07-13T13:31:09;22.86;59.38
67054;SHT31;53960;51.826;5.850;2023-07-13T13:33:41;22.92;59.40
67054;SHT31;53960;51.826;5.850;2023-07-13T13:36:19;22.80;60.29
67054;SHT31;53960;51.826;5.850;2023-07-13T13:38:46;22.63;59.07
67054;SHT31;53960;51.826;5.850;2023-07-13T13:41:13;22.62;59.70
67054;SHT31;53960;51.826;5.850;2023-07-13T13:43:40;22.86;58.49
67054;SHT31;53960;51.826;5.850;2023-07-13T13:46:24;23.17;57.49
67054;SHT31;53960;51.826;5.850;2023-07-13T13:48:50;23.37;58.24
67054;SHT31;53960;51.826;5.850;2023-07-13T13:51:21;23.55;58.45
67054;SHT31;53960;51.826;5.850;2023-07-13T13:53:48;23.48;57.89
67054;SHT31;53960;51.826;5.850;2023-07-13T13:56:17;23.10;58.14
67054;SHT31;53960;51.826;5.850;2023-07-13T13:58:43;23.21;57.71
67054;SHT31;53960;51.826;5.850;2023-07-13T14:01:21;23.24;58.38
67054;SHT31;53960;51.826;5.850;2023-07-13T14:03:48;23.18;58.87
67054;SHT31;53960;51.826;5.850;2023-07-13T14:06:19;23.07;59.33
67054;SHT31;53960;51.826;5.850;2023-07-13T14:08:45;23.00;58.60
67054;SHT31;53960;51.826;5.850;2023-07-13T14:11:18;22.87;58.42
67054;SHT31;53960;51.826;5.850;2023-07-13T14:13:49;22.84;58.72
67054;SHT31;53960;51.826;5.850;2023-07-13T14:16:17;22.75;59.19
67054;SHT31;53960;51.826;5.850;2023-07-13T14:18:46;22.60;58.88
67054;SHT31;53960;51.826;5.850;2023-07-13T14:21:17;22.62;59.06
67054;SHT31;53960;51.826;5.850;2023-07-13T14:23:45;22.62;59.42
67054;SHT31;53960;51.826;5.850;2023-07-13T14:26:19;22.53;60.00
67054;SHT31;53960;51.826;5.850;2023-07-13T14:28:48;22.45;59.10
67054;SHT31;53960;51.826;5.850;2023-07-13T14:31:15;22.44;59.70
67054;SHT31;53960;51.826;5.850;2023-07-13T14:37:13;22.42;60.19
67054;SHT31;53960;51.826;5.850;2023-07-13T14:39:40;22.39;59.73
67054;SHT31;53960;51.826;5.850;2023-07-13T14:42:08;22.34;60.52
67054;SHT31;53960;51.826;5.850;2023-07-13T14:44:34;22.31;60.23
67054;SHT31;53960;51.826;5.850;2023-07-13T14:47:02;22.25;60.44
67054;SHT31;53960;51.826;5.850;2023-07-13T14:49:42;22.32;60.30
67054;SHT31;53960;51.826;5.850;2023-07-13T14:52:13;22.55;60.73
67054;SHT31;53960;51.826;5.850;2023-07-13T14:54:39;22.84;59.82
67054;SHT31;53960;51.826;5.850;2023-07-13T14:57:17;22.93;60.42
67054;SHT31;53960;51.826;5.850;2023-07-13T14:59:45;23.20;59.81
67054;SHT31;53960;51.826;5.850;2023-07-13T15:02:34;23.14;60.35
67054;SHT31;53960;51.826;5.850;2023-07-13T15:05:01;23.18;60.79
67054;SHT31;53960;51.826;5.850;2023-07-13T15:07:26;23.14;61.08
67054;SHT31;53960;51.826;5.850;2023-07-13T15:09:52;23.24;60.66
67054;SHT31;53960;51.826;5.850;2023-07-13T15:12:18;23.15;60.22
67054;SHT31;53960;51.826;5.850;2023-07-13T15:14:45;23.03;60.41
67054;SHT31;53960;51.826;5.850;2023-07-13T15:17:35;22.77;61.24
67054;SHT31;53960;51.826;5.850;2023-07-13T15:20:04;22.62;60.72
67054;SHT31;53960;51.826;5.850;2023-07-13T15:22:31;22.53;61.93
67054;SHT31;53960;51.826;5.850;2023-07-13T15:24:57;22.41;61.93
67054;SHT31;53960;51.826;5.850;2023-07-13T15:27:22;22.32;62.40
67054;SHT31;53960;51.826;5.850;2023-07-13T15:29:47;22.09;63.43
67054;SHT31;53960;51.826;5.850;2023-07-13T15:32:14;21.94;65.16
67054;SHT31;53960;51.826;5.850;2023-07-13T15:34:39;21.81;67.22
67054;SHT31;53960;51.826;5.850;2023-07-13T15:37:16;21.53;68.63
67054;SHT31;53960;51.826;5.850;2023-07-13T15:39:42;21.26;71.40
67054;SHT31;53960;51.826;5.850;2023-07-13T15:42:20;21.10;73.50
67054;SHT31;53960;51.826;5.850;2023-07-13T15:44:46;21.03;74.43
67054;SHT31;53960;51.826;5.850;2023-07-13T15:47:13;21.03;73.86
67054;SHT31;53960;51.826;5.850;2023-07-13T15:49:39;21.06;73.08
67054;SHT31;53960;51.826;5.850;2023-07-13T15:52:16;21.03;73.24
67054;SHT31;53960;51.826;5.850;2023-07-13T15:54:41;21.00;72.86
67054;SHT31;53960;51.826;5.850;2023-07-13T15:57:09;20.96;73.54
67054;SHT31;53960;51.826;5.850;2023-07-13T15:59:37;20.89;73.22
67054;SHT31;53960;51.826;5.850;2023-07-13T16:02:19;20.92;73.27
67054;SHT31;53960;51.826;5.850;2023-07-13T16:04:46;20.84;74.33
67054;SHT31;53960;51.826;5.850;2023-07-13T16:07:14;20.82;74.91
67054;SHT31;53960;51.826;5.850;2023-07-13T16:09:42;20.79;74.58
67054;SHT31;53960;51.826;5.850;2023-07-13T16:12:10;20.85;75.09
67054;SHT31;53960;51.826;5.850;2023-07-13T16:14:37;20.91;73.95
67054;SHT31;53960;51.826;5.850;2023-07-13T16:17:02;20.96;72.09
67054;SHT31;53960;51.826;5.850;2023-07-13T16:19:28;21.00;72.96
67054;SHT31;53960;51.826;5.850;2023-07-13T16:21:54;21.00;73.24
67054;SHT31;53960;51.826;5.850;2023-07-13T16:24:21;21.05;73.42